sensor_id;sensor_type;location;lat;lon;timestamp;temperature;humidity
74384;DHT22;62824;52.994;-3.936;2024-02-26T00:02:16;4.40;99.90
74384;DHT22;62824;52.994;-3.936;2024-02-26T00:04:42;4.40;99.90
74384;DHT22;62824;52.994;-3.936;2024-02-26T00:07:08;4.40;99.90
74384;DHT22;62824;52.994;-3.936;2024-02-26T00:09:34;4.40;99.90
74384;DHT22;62824;52.994;-3.936;2024-02-26T00:12:03;4.40;99.90
74384;DHT22;62824;52.994;-3.936;2024-02-26T00:14:30;4.40;99.90
74384;DHT22;62824;52.994;-3.936;2024-02-26T00:16:59;4.40;99.90
74384;DHT22;62824;52.994;-3.936;2024-02-26T00:19:25;4.40;99.90
74384;DHT22;62824;52.994;-3.936;2024-02-26T00:21:52;4.40;99.90
74384;DHT22;62824;52.994;-3.936;2024-02-26T00:24:19;4.30;99.90
74384;DHT22;62824;52.994;-3.936;2024-02-26T00:26:45;4.40;99.90
74384;DHT22;62824;52.994;-3.936;2024-02-26T00:29:11;4.40;99.90
74384;DHT22;62824;52.994;-3.936;2024-02-26T00:31:37;4.40;99.90
74384;DHT22;62824;52.994;-3.936;2024-02-26T00:34:04;4.40;99.90
74384;DHT22;62824;52.994;-3.936;2024-02-26T00:36:29;4.50;99.90
74384;DHT22;62824;52.994;-3.936;2024-02-26T00:38:55;4.40;99.90
74384;DHT22;62824;52.994;-3.936;2024-02-26T00:41:21;4.40;99.90
74384;DHT22;62824;52.994;-3.936;2024-02-26T00:43:47;4.40;99.90
74384;DHT22;62824;52.994;-3.936;2024-02-26T00:46:13;4.30;99.90
74384;DHT22;62824;52.994;-3.936;2024-02-26T00:48:39;4.40;99.90
74384;DHT22;62824;52.994;-3.936;2024-02-26T00:51:05;4.30;99.90
74384;DHT22;62824;52.994;-3.936;2024-02-26T00:53:32;4.30;99.90
74384;DHT22;62824;52.994;-3.936;2024-02-26T00:55:57;4.30;99.90
74384;DHT22;62824;52.994;-3.936;2024-02-26T00:58:27;4.40;99.90
74384;DHT22;62824;52.994;-3.936;2024-02-26T01:00:53;4.40;99.90
74384;DHT22;62824;52.994;-3.936;2024-02-26T01:03:19;4.30;99.90
74384;DHT22;62824;52.994;-3.936;2024-02-26T01:05:45;4.40;99.90
74384;DHT22;62824;52.994;-3.936;2024-02-26T01:08:12;4.40;99.90
74384;DHT22;62824;52.994;-3.936;2024-02-26T01:10:38;4.30;99.90
74384;DHT22;62824;52.994;-3.936;2024-02-26T01:13:03;4.30;99.90
74384;DHT22;62824;52.994;-3.936;2024-02-26T01:15:29;4.40;99.90
74384;DHT22;62824;52.994;-3.936;2024-02-26T01:17:55;4.30;99.90
74384;DHT22;62824;52.994;-3.936;2024-02-26T01:20:21;4.40;99.90
74384;DHT22;62824;52.994;-3.936;2024-02-26T01:22:47;4.30;99.90
74384;DHT22;62824;52.994;-3.936;2024-02-26T01:25:13;4.30;99.90
74384;DHT22;62824;52.994;-3.936;2024-02-26T01:27:41;4.30;99.90
74384;DHT22;62824;52.994;-3.936;2024-02-26T01:30:08;4.40;99.90
74384;DHT22;62824;52.994;-3.936;2024-02-26T01:32:34;4.30;99.90
74384;DHT22;62824;52.994;-3.936;2024-02-26T01:35:01;4.30;99.90
74384;DHT22;62824;52.994;-3.936;2024-02-26T01:37:29;4.30;99.90
74384;DHT22;62824;52.994;-3.936;2024-02-26T01:39:57;4.30;99.90
74384;DHT22;62824;52.994;-3.936;2024-02-26T01:42:23;4.30;99.90
74384;DHT22;62824;52.994;-3.936;2024-02-26T01:44:49;4.30;99.90
74384;DHT22;62824;52.994;-3.936;2024-02-26T01:47:18;4.30;99.90
74384;DHT22;62824;52.994;-3.936;2024-02-26T01:49:44;4.30;99.90
74384;DHT22;62824;52.994;-3.936;2024-02-26T01:52:10;4.30;99.90
74384;DHT22;62824;52.994;-3.936;2024-02-26T01:54:37;4.30;99.90
74384;DHT22;62824;52.994;-3.936;2024-02-26T01:57:07;4.30;99.90
74384;DHT22;62824;52.994;-3.936;2024-02-26T01:59:34;4.30;99.90
74384;DHT22;62824;52.994;-3.936;2024-02-26T02:02:01;4.40;99.90
74384;DHT22;62824;52.994;-3.936;2024-02-26T02:04:29;4.40;99.90
74384;DHT22;62824;52.994;-3.936;2024-02-26T02:06:56;4.40;99.90
74384;DHT22;62824;52.994;-3.936;2024-02-26T02:09:23;4.40;99.90
74384;DHT22;62824;52.994;-3.936;2024-02-26T02:11:50;4.40;99.90
74384;DHT22;62824;52.994;-3.936;2024-02-26T02:14:16;4.40;99.90
74384;DHT22;62824;52.994;-3.936;2024-02-26T02:16:42;4.40;99.90
74384;DHT22;62824;52.994;-3.936;2024-02-26T02:19:08;4.40;99.90
74384;DHT22;62824;52.994;-3.936;2024-02-26T02:21:34;4.40;99.90
74384;DHT22;62824;52.994;-3.936;2024-02-26T02:24:00;4.40;99.90
74384;DHT22;62824;52.994;-3.936;2024-02-26T02:26:26;4.40;99.90
74384;DHT22;62824;52.994;-3.936;2024-02-26T02:28:53;4.40;99.90
74384;DHT22;62824;52.994;-3.936;2024-02-26T02:31:19;4.40;99.90
74384;DHT22;62824;52.994;-3.936;2024-02-26T02:33:45;4.40;99.90
74384;DHT22;62824;52.994;-3.936;2024-02-26T02:36:11;4.40;99.90
74384;DHT22;62824;52.994;-3.936;2024-02-26T02:38:37;4.40;99.90
74384;DHT22;62824;52.994;-3.936;2024-02-26T02:41:04;4.40;99.90
74384;DHT22;62824;52.994;-3.936;2024-02-26T02:43:30;4.40;99.90
74384;DHT22;62824;52.994;-3.936;2024-02-26T02:45:56;4.40;99.90
74384;DHT22;62824;52.994;-3.936;2024-02-26T02:48:22;4.40;99.90
74384;DHT22;62824;52.994;-3.936;2024-02-26T02:50:48;4.40;99.90
74384;DHT22;62824;52.994;-3.936;2024-02-26T02:53:14;4.40;99.90
74384;DHT22;62824;52.994;-3.936;2024-02-26T02:55:41;4.50;99.90
74384;DHT22;62824;52.994;-3.936;2024-02-26T02:58:08;4.50;99.90
74384;DHT22;62824;52.994;-3.936;2024-02-26T03:00:33;4.60;99.90
74384;DHT22;62824;52.994;-3.936;2024-02-26T03:02:59;4.60;99.90
74384;DHT22;62824;52.994;-3.936;2024-02-26T03:05:25;4.60;99.90
74384;DHT22;62824;52.994;-3.936;2024-02-26T03:07:51;4.60;99.90
74384;DHT22;62824;52.994;-3.936;2024-02-26T03:10:18;4.60;99.90
74384;DHT22;62824;52.994;-3.936;2024-02-26T03:12:45;4.60;99.90
74384;DHT22;62824;52.994;-3.936;2024-02-26T03:15:11;4.50;99.90
74384;DHT22;62824;52.994;-3.936;2024-02-26T03:17:37;4.50;99.90
74384;DHT22;62824;52.994;-3.936;2024-02-26T03:20:04;4.60;99.90
74384;DHT22;62824;52.994;-3.936;2024-02-26T03:22:31;4.60;99.90
74384;DHT22;62824;52.994;-3.936;2024-02-26T03:24:57;4.60;99.90
74384;DHT22;62824;52.994;-3.936;2024-02-26T03:27:23;4.60;99.90
74384;DHT22;62824;52.994;-3.936;2024-02-26T03:29:49;4.60;99.90
74384;DHT22;62824;52.994;-3.936;2024-02-26T03:32:15;4.60;99.90
74384;DHT22;62824;52.994;-3.936;2024-02-26T03:34:40;4.60;99.90
74384;DHT22;62824;52.994;-3.936;2024-02-26T03:37:08;4.60;99.90
74384;DHT22;62824;52.994;-3.936;2024-02-26T03:39:36;4.60;99.90
74384;DHT22;62824;52.994;-3.936;2024-02-26T03:42:02;4.70;99.90
74384;DHT22;62824;52.994;-3.936;2024-02-26T03:44:28;4.70;99.90
74384;DHT22;62824;52.994;-3.936;2024-02-26T03:46:54;4.60;99.90
74384;DHT22;62824;52.994;-3.936;2024-02-26T03:49:21;4.60;99.90
74384;DHT22;62824;52.994;-3.936;2024-02-26T03:51:48;4.60;99.90
74384;DHT22;62824;52.994;-3.936;2024-02-26T03:54:14;4.60;99.90
74384;DHT22;62824;52.994;-3.936;2024-02-26T03:56:40;4.60;99.90
74384;DHT22;62824;52.994;-3.936;2024-02-26T03:59:06;4.60;99.90
74384;DHT22;62824;52.994;-3.936;2024-02-26T04:01:32;4.60;99.90
74384;DHT22;62824;52.994;-3.936;2024-02-26T04:03:58;4.60;99.90
74384;DHT22;62824;52.994;-3.936;2024-02-26T04:06:24;4.60;99.90
74384;DHT22;62824;52.994;-3.936;2024-02-26T04:08:50;4.60;99.90
74384;DHT22;62824;52.994;-3.936;2024-02-26T04:11:16;4.60;99.90
74384;DHT22;62824;52.994;-3.936;2024-02-26T04:13:44;4.60;99.90
74384;DHT22;62824;52.994;-3.936;2024-02-26T04:16:16;4.60;99.90
74384;DHT22;62824;52.994;-3.936;2024-02-26T04:18:42;4.60;99.90
74384;DHT22;62824;52.994;-3.936;2024-02-26T04:21:08;4.60;99.90
74384;DHT22;62824;52.994;-3.936;2024-02-26T04:23:34;4.60;99.90
74384;DHT22;62824;52.994;-3.936;2024-02-26T04:26:00;4.60;99.90
74384;DHT22;62824;52.994;-3.936;2024-02-26T04:28:25;4.70;99.90
74384;DHT22;62824;52.994;-3.936;2024-02-26T04:30:54;4.70;99.90
74384;DHT22;62824;52.994;-3.936;2024-02-26T04:33:20;4.60;99.90
74384;DHT22;62824;52.994;-3.936;2024-02-26T04:35:46;4.60;99.90
74384;DHT22;62824;52.994;-3.936;2024-02-26T04:38:11;4.60;99.90
74384;DHT22;62824;52.994;-3.936;2024-02-26T04:40:37;4.60;99.90
74384;DHT22;62824;52.994;-3.936;2024-02-26T04:43:03;4.60;99.90
74384;DHT22;62824;52.994;-3.936;2024-02-26T04:45:29;4.60;99.90
74384;DHT22;62824;52.994;-3.936;2024-02-26T04:47:55;4.60;99.90
74384;DHT22;62824;52.994;-3.936;2024-02-26T04:50:21;4.60;99.90
74384;DHT22;62824;52.994;-3.936;2024-02-26T04:52:47;4.60;99.90
74384;DHT22;62824;52.994;-3.936;2024-02-26T04:55:15;4.60;99.90
74384;DHT22;62824;52.994;-3.936;2024-02-26T04:57:41;4.50;99.90
74384;DHT22;62824;52.994;-3.936;2024-02-26T05:00:08;4.60;99.90
74384;DHT22;62824;52.994;-3.936;2024-02-26T05:02:35;4.60;99.90
74384;DHT22;62824;52.994;-3.936;2024-02-26T05:05:05;4.60;99.90
74384;DHT22;62824;52.994;-3.936;2024-02-26T05:07:31;4.70;99.90
74384;DHT22;62824;52.994;-3.936;2024-02-26T05:09:57;4.70;99.90
74384;DHT22;62824;52.994;-3.936;2024-02-26T05:12:23;4.70;99.90
74384;DHT22;62824;52.994;-3.936;2024-02-26T05:14:49;4.70;99.90
74384;DHT22;62824;52.994;-3.936;2024-02-26T05:17:15;4.70;99.90
74384;DHT22;62824;52.994;-3.936;2024-02-26T05:19:41;4.70;99.90
74384;DHT22;62824;52.994;-3.936;2024-02-26T05:22:07;4.70;99.90
74384;DHT22;62824;52.994;-3.936;2024-02-26T05:24:33;4.80;99.90
74384;DHT22;62824;52.994;-3.936;2024-02-26T05:27:00;4.70;99.90
74384;DHT22;62824;52.994;-3.936;2024-02-26T05:29:26;4.70;99.90
74384;DHT22;62824;52.994;-3.936;2024-02-26T05:31:52;4.70;99.90
74384;DHT22;62824;52.994;-3.936;2024-02-26T05:34:19;4.70;99.90
74384;DHT22;62824;52.994;-3.936;2024-02-26T05:36:45;4.70;99.90
74384;DHT22;62824;52.994;-3.936;2024-02-26T05:39:11;4.70;99.90
74384;DHT22;62824;52.994;-3.936;2024-02-26T05:41:37;4.70;99.90
74384;DHT22;62824;52.994;-3.936;2024-02-26T05:44:03;4.70;99.90
74384;DHT22;62824;52.994;-3.936;2024-02-26T05:46:29;4.70;99.90
74384;DHT22;62824;52.994;-3.936;2024-02-26T05:48:55;4.80;99.90
74384;DHT22;62824;52.994;-3.936;2024-02-26T05:51:21;4.70;99.90
74384;DHT22;62824;52.994;-3.936;2024-02-26T05:53:47;4.80;99.90
74384;DHT22;62824;52.994;-3.936;2024-02-26T05:56:20;4.70;99.90
74384;DHT22;62824;52.994;-3.936;2024-02-26T05:58:46;4.70;99.90
74384;DHT22;62824;52.994;-3.936;2024-02-26T06:01:12;4.70;99.90
74384;DHT22;62824;52.994;-3.936;2024-02-26T06:03:38;4.70;99.90
74384;DHT22;62824;52.994;-3.936;2024-02-26T06:06:05;4.70;99.90
74384;DHT22;62824;52.994;-3.936;2024-02-26T06:08:30;4.70;99.90
74384;DHT22;62824;52.994;-3.936;2024-02-26T06:10:56;4.70;99.90
74384;DHT22;62824;52.994;-3.936;2024-02-26T06:13:22;4.80;99.90
74384;DHT22;62824;52.994;-3.936;2024-02-26T06:15:48;4.80;99.90
74384;DHT22;62824;52.994;-3.936;2024-02-26T06:18:14;4.80;99.90
74384;DHT22;62824;52.994;-3.936;2024-02-26T06:20:40;4.80;99.90
74384;DHT22;62824;52.994;-3.936;2024-02-26T06:23:05;4.70;99.90
74384;DHT22;62824;52.994;-3.936;2024-02-26T06:25:32;4.70;99.90
74384;DHT22;62824;52.994;-3.936;2024-02-26T06:27:58;4.70;99.90
74384;DHT22;62824;52.994;-3.936;2024-02-26T06:30:24;4.70;99.90
74384;DHT22;62824;52.994;-3.936;2024-02-26T06:32:50;4.80;99.90
74384;DHT22;62824;52.994;-3.936;2024-02-26T06:35:16;4.80;99.90
74384;DHT22;62824;52.994;-3.936;2024-02-26T06:37:41;4.80;99.90
74384;DHT22;62824;52.994;-3.936;2024-02-26T06:40:08;4.80;99.90
74384;DHT22;62824;52.994;-3.936;2024-02-26T06:42:34;4.70;99.90
74384;DHT22;62824;52.994;-3.936;2024-02-26T06:45:00;4.80;99.90
74384;DHT22;62824;52.994;-3.936;2024-02-26T06:47:26;4.80;99.90
74384;DHT22;62824;52.994;-3.936;2024-02-26T06:49:52;4.80;99.90
74384;DHT22;62824;52.994;-3.936;2024-02-26T06:52:18;4.80;99.90
74384;DHT22;62824;52.994;-3.936;2024-02-26T06:54:44;4.70;99.90
74384;DHT22;62824;52.994;-3.936;2024-02-26T06:57:10;4.80;99.90
74384;DHT22;62824;52.994;-3.936;2024-02-26T06:59:36;4.80;99.90
74384;DHT22;62824;52.994;-3.936;2024-02-26T07:02:02;4.80;99.90
74384;DHT22;62824;52.994;-3.936;2024-02-26T07:04:28;4.80;99.90
74384;DHT22;62824;52.994;-3.936;2024-02-26T07:06:54;4.70;99.90
74384;DHT22;62824;52.994;-3.936;2024-02-26T07:09:20;4.70;99.90
74384;DHT22;62824;52.994;-3.936;2024-02-26T07:11:45;4.80;99.90
74384;DHT22;62824;52.994;-3.936;2024-02-26T07:14:12;4.70;99.90
74384;DHT22;62824;52.994;-3.936;2024-02-26T07:16:38;4.70;99.90
74384;DHT22;62824;52.994;-3.936;2024-02-26T07:19:04;4.70;99.90
74384;DHT22;62824;52.994;-3.936;2024-02-26T07:21:30;4.70;99.90
74384;DHT22;62824;52.994;-3.936;2024-02-26T07:23:56;4.70;99.90
74384;DHT22;62824;52.994;-3.936;2024-02-26T07:26:23;4.70;99.90
74384;DHT22;62824;52.994;-3.936;2024-02-26T07:28:50;4.70;99.90
74384;DHT22;62824;52.994;-3.936;2024-02-26T07:31:17;4.70;99.90
74384;DHT22;62824;52.994;-3.936;2024-02-26T07:33:43;4.70;99.90
74384;DHT22;62824;52.994;-3.936;2024-02-26T07:36:09;4.60;99.90
74384;DHT22;62824;52.994;-3.936;2024-02-26T07:38:35;4.60;99.90
74384;DHT22;62824;52.994;-3.936;2024-02-26T07:41:02;4.60;99.90
74384;DHT22;62824;52.994;-3.936;2024-02-26T07:43:28;4.60;99.90
74384;DHT22;62824;52.994;-3.936;2024-02-26T07:45:54;4.60;99.90
74384;DHT22;62824;52.994;-3.936;2024-02-26T07:48:23;4.60;99.90
74384;DHT22;62824;52.994;-3.936;2024-02-26T07:50:51;4.60;99.90
74384;DHT22;62824;52.994;-3.936;2024-02-26T07:53:17;4.50;99.90
74384;DHT22;62824;52.994;-3.936;2024-02-26T07:55:43;4.50;99.90
74384;DHT22;62824;52.994;-3.936;2024-02-26T07:58:09;4.40;99.90
74384;DHT22;62824;52.994;-3.936;2024-02-26T08:00:34;4.50;99.90
74384;DHT22;62824;52.994;-3.936;2024-02-26T08:03:04;4.40;99.90
74384;DHT22;62824;52.994;-3.936;2024-02-26T08:05:30;4.40;99.90
74384;DHT22;62824;52.994;-3.936;2024-02-26T08:07:55;4.40;99.90
74384;DHT22;62824;52.994;-3.936;2024-02-26T08:10:21;4.40;99.90
74384;DHT22;62824;52.994;-3.936;2024-02-26T08:12:47;4.40;99.90
74384;DHT22;62824;52.994;-3.936;2024-02-26T08:15:13;4.40;99.90
74384;DHT22;62824;52.994;-3.936;2024-02-26T08:17:42;4.30;99.90
74384;DHT22;62824;52.994;-3.936;2024-02-26T08:20:08;4.40;99.90
74384;DHT22;62824;52.994;-3.936;2024-02-26T08:22:34;4.40;99.90
74384;DHT22;62824;52.994;-3.936;2024-02-26T08:25:00;4.40;99.90
74384;DHT22;62824;52.994;-3.936;2024-02-26T08:27:30;4.40;99.90
74384;DHT22;62824;52.994;-3.936;2024-02-26T08:29:56;4.80;99.90
74384;DHT22;62824;52.994;-3.936;2024-02-26T08:32:22;5.70;99.90
74384;DHT22;62824;52.994;-3.936;2024-02-26T08:34:48;6.30;99.30
74384;DHT22;62824;52.994;-3.936;2024-02-26T08:37:14;6.90;95.30
74384;DHT22;62824;52.994;-3.936;2024-02-26T08:39:40;7.30;90.10
74384;DHT22;62824;52.994;-3.936;2024-02-26T08:42:06;7.10;80.90
74384;DHT22;62824;52.994;-3.936;2024-02-26T08:44:31;7.50;80.60
74384;DHT22;62824;52.994;-3.936;2024-02-26T08:46:57;7.80;75.40
74384;DHT22;62824;52.994;-3.936;2024-02-26T08:49:24;7.60;72.90
74384;DHT22;62824;52.994;-3.936;2024-02-26T08:51:50;7.90;67.20
74384;DHT22;62824;52.994;-3.936;2024-02-26T08:54:15;7.60;71.90
74384;DHT22;62824;52.994;-3.936;2024-02-26T08:56:42;7.60;75.80
74384;DHT22;62824;52.994;-3.936;2024-02-26T08:59:07;7.70;69.70
74384;DHT22;62824;52.994;-3.936;2024-02-26T09:01:33;7.20;73.60
74384;DHT22;62824;52.994;-3.936;2024-02-26T09:03:59;7.30;73.20
74384;DHT22;62824;52.994;-3.936;2024-02-26T09:06:25;7.30;79.30
74384;DHT22;62824;52.994;-3.936;2024-02-26T09:08:52;7.20;74.90
74384;DHT22;62824;52.994;-3.936;2024-02-26T09:11:17;6.90;78.90
74384;DHT22;62824;52.994;-3.936;2024-02-26T09:13:43;6.40;88.10
74384;DHT22;62824;52.994;-3.936;2024-02-26T09:16:11;6.70;89.20
74384;DHT22;62824;52.994;-3.936;2024-02-26T09:18:38;6.50;85.20
74384;DHT22;62824;52.994;-3.936;2024-02-26T09:21:05;6.40;86.90
74384;DHT22;62824;52.994;-3.936;2024-02-26T09:23:31;6.50;89.30
74384;DHT22;62824;52.994;-3.936;2024-02-26T09:25:58;6.50;85.70
74384;DHT22;62824;52.994;-3.936;2024-02-26T09:28:23;7.50;78.40
74384;DHT22;62824;52.994;-3.936;2024-02-26T09:30:49;8.40;69.10
74384;DHT22;62824;52.994;-3.936;2024-02-26T09:33:16;8.60;63.20
74384;DHT22;62824;52.994;-3.936;2024-02-26T09:35:42;8.90;59.30
74384;DHT22;62824;52.994;-3.936;2024-02-26T09:38:08;9.00;55.30
74384;DHT22;62824;52.994;-3.936;2024-02-26T09:40:34;8.80;51.50
74384;DHT22;62824;52.994;-3.936;2024-02-26T09:43:00;8.20;55.30
74384;DHT22;62824;52.994;-3.936;2024-02-26T09:45:30;7.50;70.30
74384;DHT22;62824;52.994;-3.936;2024-02-26T09:47:58;7.70;78.10
74384;DHT22;62824;52.994;-3.936;2024-02-26T09:50:24;7.10;75.20
74384;DHT22;62824;52.994;-3.936;2024-02-26T09:52:51;7.50;76.50
74384;DHT22;62824;52.994;-3.936;2024-02-26T09:55:18;7.80;70.00
74384;DHT22;62824;52.994;-3.936;2024-02-26T09:57:46;7.80;70.40
74384;DHT22;62824;52.994;-3.936;2024-02-26T10:00:22;7.50;73.30
74384;DHT22;62824;52.994;-3.936;2024-02-26T10:02:48;7.90;75.50
74384;DHT22;62824;52.994;-3.936;2024-02-26T10:05:21;8.10;62.20
74384;DHT22;62824;52.994;-3.936;2024-02-26T10:07:47;8.00;65.20
74384;DHT22;62824;52.994;-3.936;2024-02-26T10:10:17;7.90;63.10
74384;DHT22;62824;52.994;-3.936;2024-02-26T10:12:43;7.20;65.50
74384;DHT22;62824;52.994;-3.936;2024-02-26T10:15:09;7.00;66.70
74384;DHT22;62824;52.994;-3.936;2024-02-26T10:17:35;7.50;67.80
74384;DHT22;62824;52.994;-3.936;2024-02-26T10:20:13;8.80;50.30
74384;DHT22;62824;52.994;-3.936;2024-02-26T10:22:44;9.20;41.60
74384;DHT22;62824;52.994;-3.936;2024-02-26T10:25:10;8.60;44.70
74384;DHT22;62824;52.994;-3.936;2024-02-26T10:27:36;8.40;48.50
74384;DHT22;62824;52.994;-3.936;2024-02-26T10:30:03;8.40;51.20
74384;DHT22;62824;52.994;-3.936;2024-02-26T10:32:30;7.60;56.10
74384;DHT22;62824;52.994;-3.936;2024-02-26T10:34:57;7.40;65.90
74384;DHT22;62824;52.994;-3.936;2024-02-26T10:37:23;7.40;64.00
74384;DHT22;62824;52.994;-3.936;2024-02-26T10:39:50;7.40;67.60
74384;DHT22;62824;52.994;-3.936;2024-02-26T10:42:16;7.90;58.90
74384;DHT22;62824;52.994;-3.936;2024-02-26T10:44:45;8.70;51.00
74384;DHT22;62824;52.994;-3.936;2024-02-26T10:47:12;9.80;35.00
74384;DHT22;62824;52.994;-3.936;2024-02-26T10:49:38;10.80;29.40
74384;DHT22;62824;52.994;-3.936;2024-02-26T10:52:04;11.10;25.40
74384;DHT22;62824;52.994;-3.936;2024-02-26T10:54:32;11.50;21.00
74384;DHT22;62824;52.994;-3.936;2024-02-26T10:56:59;10.60;24.30
74384;DHT22;62824;52.994;-3.936;2024-02-26T10:59:27;9.80;34.40
74384;DHT22;62824;52.994;-3.936;2024-02-26T11:01:54;9.70;34.70
74384;DHT22;62824;52.994;-3.936;2024-02-26T11:04:25;10.50;28.60
74384;DHT22;62824;52.994;-3.936;2024-02-26T11:06:54;11.00;23.20
74384;DHT22;62824;52.994;-3.936;2024-02-26T11:09:22;11.60;22.90
74384;DHT22;62824;52.994;-3.936;2024-02-26T11:11:49;11.30;20.00
74384;DHT22;62824;52.994;-3.936;2024-02-26T11:14:20;11.60;19.10
74384;DHT22;62824;52.994;-3.936;2024-02-26T11:16:48;10.70;22.40
74384;DHT22;62824;52.994;-3.936;2024-02-26T11:19:16;8.90;38.20
74384;DHT22;62824;52.994;-3.936;2024-02-26T11:21:42;8.50;48.60
74384;DHT22;62824;52.994;-3.936;2024-02-26T11:24:14;8.70;49.70
74384;DHT22;62824;52.994;-3.936;2024-02-26T11:26:52;9.50;50.40
74384;DHT22;62824;52.994;-3.936;2024-02-26T11:29:31;9.70;36.90
74384;DHT22;62824;52.994;-3.936;2024-02-26T11:32:01;10.00;39.00
74384;DHT22;62824;52.994;-3.936;2024-02-26T11:34:27;9.80;34.30
74384;DHT22;62824;52.994;-3.936;2024-02-26T11:36:54;9.30;36.50
74384;DHT22;62824;52.994;-3.936;2024-02-26T11:39:21;9.40;37.70
74384;DHT22;62824;52.994;-3.936;2024-02-26T11:41:48;9.90;27.70
74384;DHT22;62824;52.994;-3.936;2024-02-26T11:44:29;10.10;25.60
74384;DHT22;62824;52.994;-3.936;2024-02-26T11:46:56;10.80;24.90
74384;DHT22;62824;52.994;-3.936;2024-02-26T11:51:58;11.70;13.10
74384;DHT22;62824;52.994;-3.936;2024-02-26T11:54:48;12.10;10.90
74384;DHT22;62824;52.994;-3.936;2024-02-26T11:57:39;11.60;8.00
74384;DHT22;62824;52.994;-3.936;2024-02-26T12:00:13;12.90;8.40
74384;DHT22;62824;52.994;-3.936;2024-02-26T12:05:20;13.50;2.80
74384;DHT22;62824;52.994;-3.936;2024-02-26T12:08:04;12.70;3.40
74384;DHT22;62824;52.994;-3.936;2024-02-26T12:10:33;12.80;5.70
74384;DHT22;62824;52.994;-3.936;2024-02-26T12:13:11;12.90;3.70
74384;DHT22;62824;52.994;-3.936;2024-02-26T12:15:55;12.40;5.60
74384;DHT22;62824;52.994;-3.936;2024-02-26T12:18:21;13.70;2.40
74384;DHT22;62824;52.994;-3.936;2024-02-26T12:21:01;13.20;3.20
74384;DHT22;62824;52.994;-3.936;2024-02-26T12:23:27;13.90;1.00
74384;DHT22;62824;52.994;-3.936;2024-02-26T12:25:58;13.90;1.00
74384;DHT22;62824;52.994;-3.936;2024-02-26T12:28:30;13.00;4.20
74384;DHT22;62824;52.994;-3.936;2024-02-26T12:30:57;12.30;2.50
74384;DHT22;62824;52.994;-3.936;2024-02-26T12:33:25;12.70;4.40
74384;DHT22;62824;52.994;-3.936;2024-02-26T12:35:53;12.80;4.30
74384;DHT22;62824;52.994;-3.936;2024-02-26T12:38:19;13.80;1.00
74384;DHT22;62824;52.994;-3.936;2024-02-26T12:40:45;13.90;1.00
74384;DHT22;62824;52.994;-3.936;2024-02-26T12:43:11;12.30;4.30
74384;DHT22;62824;52.994;-3.936;2024-02-26T12:45:42;11.70;4.60
74384;DHT22;62824;52.994;-3.936;2024-02-26T12:48:12;11.60;5.70
74384;DHT22;62824;52.994;-3.936;2024-02-26T12:50:38;11.00;8.80
74384;DHT22;62824;52.994;-3.936;2024-02-26T12:53:05;10.70;10.80
74384;DHT22;62824;52.994;-3.936;2024-02-26T12:55:32;9.90;12.20
74384;DHT22;62824;52.994;-3.936;2024-02-26T12:58:00;9.70;14.00
74384;DHT22;62824;52.994;-3.936;2024-02-26T13:00:27;11.20;10.00
74384;DHT22;62824;52.994;-3.936;2024-02-26T13:02:54;11.40;9.40
74384;DHT22;62824;52.994;-3.936;2024-02-26T13:05:21;11.70;9.30
74384;DHT22;62824;52.994;-3.936;2024-02-26T13:07:48;11.40;9.50
74384;DHT22;62824;52.994;-3.936;2024-02-26T13:10:16;12.10;7.50
74384;DHT22;62824;52.994;-3.936;2024-02-26T13:12:48;12.00;8.70
74384;DHT22;62824;52.994;-3.936;2024-02-26T13:15:20;12.60;6.60
74384;DHT22;62824;52.994;-3.936;2024-02-26T13:17:47;12.10;7.30
74384;DHT22;62824;52.994;-3.936;2024-02-26T13:20:25;11.10;11.60
74384;DHT22;62824;52.994;-3.936;2024-02-26T13:22:51;10.80;14.00
74384;DHT22;62824;52.994;-3.936;2024-02-26T13:25:20;10.60;13.70
74384;DHT22;62824;52.994;-3.936;2024-02-26T13:27:46;11.20;11.20
74384;DHT22;62824;52.994;-3.936;2024-02-26T13:30:12;10.70;10.60
74384;DHT22;62824;52.994;-3.936;2024-02-26T13:32:40;10.50;9.80
74384;DHT22;62824;52.994;-3.936;2024-02-26T13:35:13;10.30;12.20
74384;DHT22;62824;52.994;-3.936;2024-02-26T13:37:39;11.10;11.30
74384;DHT22;62824;52.994;-3.936;2024-02-26T13:40:10;11.40;12.10
74384;DHT22;62824;52.994;-3.936;2024-02-26T13:42:38;12.20;7.10
74384;DHT22;62824;52.994;-3.936;2024-02-26T13:45:05;11.90;8.90
74384;DHT22;62824;52.994;-3.936;2024-02-26T13:47:34;11.50;8.80
74384;DHT22;62824;52.994;-3.936;2024-02-26T13:50:01;11.50;10.60
74384;DHT22;62824;52.994;-3.936;2024-02-26T13:52:27;11.00;11.70
74384;DHT22;62824;52.994;-3.936;2024-02-26T13:54:53;10.60;13.10
74384;DHT22;62824;52.994;-3.936;2024-02-26T13:57:19;11.40;11.20
74384;DHT22;62824;52.994;-3.936;2024-02-26T13:59:46;10.60;10.50
74384;DHT22;62824;52.994;-3.936;2024-02-26T14:02:12;11.20;12.60
74384;DHT22;62824;52.994;-3.936;2024-02-26T14:04:38;11.00;11.30
74384;DHT22;62824;52.994;-3.936;2024-02-26T14:07:04;11.70;10.40
74384;DHT22;62824;52.994;-3.936;2024-02-26T14:09:30;11.60;10.00
74384;DHT22;62824;52.994;-3.936;2024-02-26T14:11:58;11.40;8.50
74384;DHT22;62824;52.994;-3.936;2024-02-26T14:14:24;11.50;8.70
74384;DHT22;62824;52.994;-3.936;2024-02-26T14:16:51;11.00;11.90
74384;DHT22;62824;52.994;-3.936;2024-02-26T14:19:17;11.00;9.80
74384;DHT22;62824;52.994;-3.936;2024-02-26T14:21:43;10.50;11.60
74384;DHT22;62824;52.994;-3.936;2024-02-26T14:24:09;10.80;13.30
74384;DHT22;62824;52.994;-3.936;2024-02-26T14:26:35;10.20;12.50
74384;DHT22;62824;52.994;-3.936;2024-02-26T14:29:01;10.70;13.70
74384;DHT22;62824;52.994;-3.936;2024-02-26T14:31:27;10.70;11.10
74384;DHT22;62824;52.994;-3.936;2024-02-26T14:33:52;9.50;16.70
74384;DHT22;62824;52.994;-3.936;2024-02-26T14:36:20;9.10;21.40
74384;DHT22;62824;52.994;-3.936;2024-02-26T14:38:47;9.30;24.60
74384;DHT22;62824;52.994;-3.936;2024-02-26T14:41:14;9.30;24.70
74384;DHT22;62824;52.994;-3.936;2024-02-26T14:43:39;9.60;25.70
74384;DHT22;62824;52.994;-3.936;2024-02-26T14:46:08;9.60;21.60
74384;DHT22;62824;52.994;-3.936;2024-02-26T14:48:34;9.10;25.00
74384;DHT22;62824;52.994;-3.936;2024-02-26T14:51:00;8.60;25.50
74384;DHT22;62824;52.994;-3.936;2024-02-26T14:53:26;8.50;27.70
74384;DHT22;62824;52.994;-3.936;2024-02-26T14:55:52;8.10;29.50
74384;DHT22;62824;52.994;-3.936;2024-02-26T14:58:18;8.10;30.20
74384;DHT22;62824;52.994;-3.936;2024-02-26T15:00:44;8.20;32.90
74384;DHT22;62824;52.994;-3.936;2024-02-26T15:03:10;7.90;38.90
74384;DHT22;62824;52.994;-3.936;2024-02-26T15:05:36;7.90;43.50
74384;DHT22;62824;52.994;-3.936;2024-02-26T15:08:02;7.90;45.20
74384;DHT22;62824;52.994;-3.936;2024-02-26T15:10:28;7.90;48.20
74384;DHT22;62824;52.994;-3.936;2024-02-26T15:12:54;8.00;47.90
74384;DHT22;62824;52.994;-3.936;2024-02-26T15:15:24;8.30;40.60
74384;DHT22;62824;52.994;-3.936;2024-02-26T15:17:50;8.30;37.60
74384;DHT22;62824;52.994;-3.936;2024-02-26T15:20:16;7.80;45.10
74384;DHT22;62824;52.994;-3.936;2024-02-26T15:22:43;7.80;43.20
74384;DHT22;62824;52.994;-3.936;2024-02-26T15:25:09;7.60;47.00
74384;DHT22;62824;52.994;-3.936;2024-02-26T15:27:35;7.50;48.90
74384;DHT22;62824;52.994;-3.936;2024-02-26T15:30:01;7.70;50.70
74384;DHT22;62824;52.994;-3.936;2024-02-26T15:32:27;7.80;50.90
74384;DHT22;62824;52.994;-3.936;2024-02-26T15:34:54;7.70;45.00